sensor_id;sensor_type;location;lat;lon;timestamp;pressure;altitude;pressure_sealevel;temperature;humidity
31082;BME280;17737;52.586;13.284;2023-09-08T00:00:41;101818.00;;;18.16;100.00
31082;BME280;17737;52.586;13.284;2023-09-08T00:03:09;101814.84;;;18.34;100.00
31082;BME280;17737;52.586;13.284;2023-09-08T00:05:37;101821.75;;;18.15;100.00
31082;BME280;17737;52.586;13.284;2023-09-08T00:08:05;101814.03;;;18.19;100.00
31082;BME280;17737;52.586;13.284;2023-09-08T00:10:33;101815.94;;;18.18;100.00
31082;BME280;17737;52.586;13.284;2023-09-08T00:13:03;101815.22;;;18.10;100.00
31082;BME280;17737;52.586;13.284;2023-09-08T00:15:33;101819.06;;;18.01;100.00
31082;BME280;17737;52.586;13.284;2023-09-08T00:18:02;101812.84;;;18.07;100.00
31082;BME280;17737;52.586;13.284;2023-09-08T00:20:31;101817.00;;;18.03;100.00
31082;BME280;17737;52.586;13.284;2023-09-08T00:22:59;101816.81;;;17.89;100.00
31082;BME280;17737;52.586;13.284;2023-09-08T00:25:27;101812.69;;;17.93;100.00
31082;BME280;17737;52.586;13.284;2023-09-08T00:27:55;101815.50;;;18.00;100.00
31082;BME280;17737;52.586;13.284;2023-09-08T00:30:24;101813.19;;;17.82;100.00
31082;BME280;17737;52.586;13.284;2023-09-08T00:32:52;101812.88;;;17.77;100.00
31082;BME280;17737;52.586;13.284;2023-09-08T00:35:20;101810.53;;;17.74;100.00
31082;BME280;17737;52.586;13.284;2023-09-08T00:37:48;101811.19;;;17.76;100.00
31082;BME280;17737;52.586;13.284;2023-09-08T00:40:16;101805.28;;;17.73;100.00
31082;BME280;17737;52.586;13.284;2023-09-08T00:42:45;101802.19;;;17.61;100.00
31082;BME280;17737;52.586;13.284;2023-09-08T00:45:13;101807.63;;;17.61;100.00
31082;BME280;17737;52.586;13.284;2023-09-08T00:47:43;101804.72;;;17.63;100.00
31082;BME280;17737;52.586;13.284;2023-09-08T00:50:11;101814.69;;;17.56;100.00
31082;BME280;17737;52.586;13.284;2023-09-08T00:52:39;101805.09;;;17.60;100.00
31082;BME280;17737;52.586;13.284;2023-09-08T00:55:08;101807.06;;;17.66;100.00
31082;BME280;17737;52.586;13.284;2023-09-08T00:57:36;101808.75;;;17.81;100.00
31082;BME280;17737;52.586;13.284;2023-09-08T01:00:05;101797.44;;;17.84;100.00
31082;BME280;17737;52.586;13.284;2023-09-08T01:02:35;101806.41;;;17.78;100.00
31082;BME280;17737;52.586;13.284;2023-09-08T01:05:05;101805.38;;;17.65;100.00
31082;BME280;17737;52.586;13.284;2023-09-08T01:07:33;101794.28;;;17.66;100.00
31082;BME280;17737;52.586;13.284;2023-09-08T01:10:03;101794.66;;;17.78;100.00
31082;BME280;17737;52.586;13.284;2023-09-08T01:12:33;101798.41;;;17.77;100.00
31082;BME280;17737;52.586;13.284;2023-09-08T01:15:02;101789.13;;;17.71;100.00
31082;BME280;17737;52.586;13.284;2023-09-08T01:17:31;101796.53;;;17.63;100.00
31082;BME280;17737;52.586;13.284;2023-09-08T01:20:02;101795.88;;;17.61;100.00
31082;BME280;17737;52.586;13.284;2023-09-08T01:22:50;101787.44;;;17.70;100.00
31082;BME280;17737;52.586;13.284;2023-09-08T01:25:31;101786.84;;;17.75;100.00
31082;BME280;17737;52.586;13.284;2023-09-08T01:28:03;101784.13;;;17.75;100.00
31082;BME280;17737;52.586;13.284;2023-09-08T01:30:33;101787.06;;;17.73;100.00
31082;BME280;17737;52.586;13.284;2023-09-08T01:33:03;101779.16;;;17.64;100.00
31082;BME280;17737;52.586;13.284;2023-09-08T01:35:32;101786.00;;;17.74;100.00
31082;BME280;17737;52.586;13.284;2023-09-08T01:38:00;101787.97;;;17.66;100.00
31082;BME280;17737;52.586;13.284;2023-09-08T01:40:28;101782.84;;;17.56;100.00
31082;BME280;17737;52.586;13.284;2023-09-08T01:42:57;101785.44;;;17.64;100.00
31082;BME280;17737;52.586;13.284;2023-09-08T01:45:25;101787.78;;;17.67;100.00
31082;BME280;17737;52.586;13.284;2023-09-08T01:47:53;101779.44;;;17.54;100.00
31082;BME280;17737;52.586;13.284;2023-09-08T01:50:22;101778.41;;;17.55;100.00
31082;BME280;17737;52.586;13.284;2023-09-08T01:52:51;101771.53;;;17.59;100.00
31082;BME280;17737;52.586;13.284;2023-09-08T01:55:19;101771.53;;;17.59;100.00
31082;BME280;17737;52.586;13.284;2023-09-08T01:57:47;101772.41;;;17.60;100.00
31082;BME280;17737;52.586;13.284;2023-09-08T02:00:17;101778.41;;;17.55;100.00
31082;BME280;17737;52.586;13.284;2023-09-08T02:02:45;101774.00;;;17.54;100.00
31082;BME280;17737;52.586;13.284;2023-09-08T02:05:13;101771.41;;;17.38;100.00
31082;BME280;17737;52.586;13.284;2023-09-08T02:07:42;101766.44;;;17.42;100.00
31082;BME280;17737;52.586;13.284;2023-09-08T02:10:10;101772.84;;;17.34;100.00
31082;BME280;17737;52.586;13.284;2023-09-08T02:12:38;101775.28;;;17.29;100.00
31082;BME280;17737;52.586;13.284;2023-09-08T02:15:07;101770.00;;;17.42;100.00
31082;BME280;17737;52.586;13.284;2023-09-08T02:17:39;101767.66;;;17.25;100.00
31082;BME280;17737;52.586;13.284;2023-09-08T02:20:08;101761.28;;;17.32;100.00
31082;BME280;17737;52.586;13.284;2023-09-08T02:22:36;101768.31;;;17.27;100.00
31082;BME280;17737;52.586;13.284;2023-09-08T02:25:05;101763.91;;;17.26;100.00
31082;BME280;17737;52.586;13.284;2023-09-08T02:27:34;101755.56;;;17.27;100.00
31082;BME280;17737;52.586;13.284;2023-09-08T02:30:03;101764.78;;;17.26;100.00
31082;BME280;17737;52.586;13.284;2023-09-08T02:32:32;101763.81;;;17.19;100.00
31082;BME280;17737;52.586;13.284;2023-09-08T02:35:01;101763.91;;;17.26;100.00
31082;BME280;17737;52.586;13.284;2023-09-08T02:37:29;101765.69;;;17.19;100.00
31082;BME280;17737;52.586;13.284;2023-09-08T02:39:57;101761.75;;;17.21;100.00
31082;BME280;17737;52.586;13.284;2023-09-08T02:42:26;101765.69;;;17.04;100.00
31082;BME280;17737;52.586;13.284;2023-09-08T02:44:54;101755.19;;;17.16;100.00
31082;BME280;17737;52.586;13.284;2023-09-08T02:47:22;101754.69;;;17.12;100.00
31082;BME280;17737;52.586;13.284;2023-09-08T02:49:50;101759.84;;;17.07;100.00
31082;BME280;17737;52.586;13.284;2023-09-08T02:52:19;101758.44;;;16.97;100.00
31082;BME280;17737;52.586;13.284;2023-09-08T02:54:47;101756.63;;;16.89;100.00
31082;BME280;17737;52.586;13.284;2023-09-08T02:57:15;101752.69;;;17.06;100.00
31082;BME280;17737;52.586;13.284;2023-09-08T02:59:48;101747.25;;;17.06;100.00
31082;BME280;17737;52.586;13.284;2023-09-08T03:02:17;101749.31;;;16.90;100.00
31082;BME280;17737;52.586;13.284;2023-09-08T03:04:45;101749.13;;;16.91;100.00
31082;BME280;17737;52.586;13.284;2023-09-08T03:07:13;101751.56;;;16.86;100.00
31082;BME280;17737;52.586;13.284;2023-09-08T03:09:43;101744.97;;;16.81;100.00
31082;BME280;17737;52.586;13.284;2023-09-08T03:12:11;101743.47;;;16.78;100.00
31082;BME280;17737;52.586;13.284;2023-09-08T03:14:39;101743.41;;;16.63;100.00
31082;BME280;17737;52.586;13.284;2023-09-08T03:17:07;101740.84;;;16.70;100.00
31082;BME280;17737;52.586;13.284;2023-09-08T03:19:35;101736.13;;;16.64;100.00
31082;BME280;17737;52.586;13.284;2023-09-08T03:22:03;101741.63;;;16.56;100.00
31082;BME280;17737;52.586;13.284;2023-09-08T03:24:31;101740.69;;;16.63;100.00
31082;BME280;17737;52.586;13.284;2023-09-08T03:27:00;101742.44;;;16.79;100.00
31082;BME280;17737;52.586;13.284;2023-09-08T03:29:28;101743.72;;;16.68;100.00
31082;BME280;17737;52.586;13.284;2023-09-08T03:31:56;101746.03;;;16.94;100.00
31082;BME280;17737;52.586;13.284;2023-09-08T03:34:25;101744.13;;;16.80;100.00
31082;BME280;17737;52.586;13.284;2023-09-08T03:36:53;101744.66;;;16.75;100.00
31082;BME280;17737;52.586;13.284;2023-09-08T03:39:21;101749.03;;;16.62;100.00
31082;BME280;17737;52.586;13.284;2023-09-08T03:41:49;101751.38;;;16.50;100.00
31082;BME280;17737;52.586;13.284;2023-09-08T03:44:19;101747.25;;;16.54;100.00
31082;BME280;17737;52.586;13.284;2023-09-08T03:46:47;101747.78;;;16.50;100.00
31082;BME280;17737;52.586;13.284;2023-09-08T03:49:15;101751.47;;;16.57;100.00
31082;BME280;17737;52.586;13.284;2023-09-08T03:51:43;101760.09;;;16.38;100.00
31082;BME280;17737;52.586;13.284;2023-09-08T03:54:10;101756.91;;;16.34;100.00
31082;BME280;17737;52.586;13.284;2023-09-08T03:56:38;101761.63;;;16.40;100.00
31082;BME280;17737;52.586;13.284;2023-09-08T03:59:06;101765.22;;;16.33;100.00
31082;BME280;17737;52.586;13.284;2023-09-08T04:01:36;101758.09;;;16.32;100.00
31082;BME280;17737;52.586;13.284;2023-09-08T04:04:04;101761.53;;;16.56;100.00
31082;BME280;17737;52.586;13.284;2023-09-08T04:06:32;101767.72;;;16.42;100.00
31082;BME280;17737;52.586;13.284;2023-09-08T04:09:00;101758.22;;;16.38;100.00
31082;BME280;17737;52.586;13.284;2023-09-08T04:11:28;101761.72;;;16.24;100.00
31082;BME280;17737;52.586;13.284;2023-09-08T04:13:56;101763.09;;;16.51;100.00
31082;BME280;17737;52.586;13.284;2023-09-08T04:16:25;101757.38;;;16.38;100.00
31082;BME280;17737;52.586;13.284;2023-09-08T04:18:55;101759.66;;;16.26;100.00
31082;BME280;17737;52.586;13.284;2023-09-08T04:21:23;101766.81;;;16.27;100.00
31082;BME280;17737;52.586;13.284;2023-09-08T04:23:51;101761.50;;;16.34;100.00
31082;BME280;17737;52.586;13.284;2023-09-08T04:26:19;101758.47;;;16.29;100.00
31082;BME280;17737;52.586;13.284;2023-09-08T04:28:47;101765.97;;;16.27;100.00
31082;BME280;17737;52.586;13.284;2023-09-08T04:31:15;101760.53;;;16.27;100.00
31082;BME280;17737;52.586;13.284;2023-09-08T04:33:47;101759.94;;;16.39;100.00
31082;BME280;17737;52.586;13.284;2023-09-08T04:36:16;101760.81;;;16.32;100.00
31082;BME280;17737;52.586;13.284;2023-09-08T04:38:44;101762.50;;;16.33;100.00
31082;BME280;17737;52.586;13.284;2023-09-08T04:41:12;101761.00;;;16.30;100.00
31082;BME280;17737;52.586;13.284;2023-09-08T04:43:40;101770.53;;;16.26;100.00
31082;BME280;17737;52.586;13.284;2023-09-08T04:46:08;101761.13;;;16.37;100.00
31082;BME280;17737;52.586;13.284;2023-09-08T04:48:36;101764.88;;;16.36;100.00
31082;BME280;17737;52.586;13.284;2023-09-08T04:51:06;101762.16;;;16.36;100.00
31082;BME280;17737;52.586;13.284;2023-09-08T04:53:35;101768.50;;;16.28;100.00
31082;BME280;17737;52.586;13.284;2023-09-08T04:56:04;101761.59;;;16.18;100.00
31082;BME280;17737;52.586;13.284;2023-09-08T04:58:32;101763.19;;;16.35;100.00
31082;BME280;17737;52.586;13.284;2023-09-08T05:01:01;101770.44;;;16.42;100.00
31082;BME280;17737;52.586;13.284;2023-09-08T05:03:29;101761.63;;;16.40;100.00
31082;BME280;17737;52.586;13.284;2023-09-08T05:05:57;101767.69;;;16.50;100.00
31082;BME280;17737;52.586;13.284;2023-09-08T05:08:25;101760.13;;;16.60;100.00
31082;BME280;17737;52.586;13.284;2023-09-08T05:10:55;101757.78;;;16.57;100.00
31082;BME280;17737;52.586;13.284;2023-09-08T05:13:23;101761.06;;;16.53;100.00
31082;BME280;17737;52.586;13.284;2023-09-08T05:15:57;101756.91;;;16.57;100.00
31082;BME280;17737;52.586;13.284;2023-09-08T05:18:38;101758.34;;;16.45;100.00
31082;BME280;17737;52.586;13.284;2023-09-08T05:21:06;101761.06;;;16.53;100.00
31082;BME280;17737;52.586;13.284;2023-09-08T05:23:34;101752.84;;;16.75;100.00
31082;BME280;17737;52.586;13.284;2023-09-08T05:26:04;101751.47;;;16.94;100.00
31082;BME280;17737;52.586;13.284;2023-09-08T05:28:31;101753.38;;;16.94;100.00
31082;BME280;17737;52.586;13.284;2023-09-08T05:31:04;101754.66;;;16.98;100.00
31082;BME280;17737;52.586;13.284;2023-09-08T05:33:32;101748.22;;;16.99;100.00
31082;BME280;17737;52.586;13.284;2023-09-08T05:36:00;101751.16;;;17.26;100.00
31082;BME280;17737;52.586;13.284;2023-09-08T05:38:28;101756.00;;;17.16;100.00
31082;BME280;17737;52.586;13.284;2023-09-08T05:40:57;101764.19;;;17.31;100.00
31082;BME280;17737;52.586;13.284;2023-09-08T05:43:26;101759.41;;;17.33;100.00
31082;BME280;17737;52.586;13.284;2023-09-08T05:45:54;101757.06;;;17.44;100.00
31082;BME280;17737;52.586;13.284;2023-09-08T05:48:22;101750.19;;;17.34;100.00
31082;BME280;17737;52.586;13.284;2023-09-08T05:50:50;101757.44;;;17.41;100.00
31082;BME280;17737;52.586;13.284;2023-09-08T05:53:18;101752.97;;;17.48;100.00
31082;BME280;17737;52.586;13.284;2023-09-08T05:55:46;101753.59;;;17.65;100.00
31082;BME280;17737;52.586;13.284;2023-09-08T05:58:14;101759.41;;;17.76;100.00
31082;BME280;17737;52.586;13.284;2023-09-08T06:00:43;101757.81;;;17.67;100.00
31082;BME280;17737;52.586;13.284;2023-09-08T06:03:12;101758.00;;;17.80;100.00
31082;BME280;17737;52.586;13.284;2023-09-08T06:05:40;101750.88;;;18.01;100.00
31082;BME280;17737;52.586;13.284;2023-09-08T06:08:08;101756.16;;;18.02;100.00
31082;BME280;17737;52.586;13.284;2023-09-08T06:10:37;101756.69;;;18.12;100.00
31082;BME280;17737;52.586;13.284;2023-09-08T06:13:06;101756.06;;;18.31;100.00
31082;BME280;17737;52.586;13.284;2023-09-08T06:15:34;101747.91;;;18.17;100.00
31082;BME280;17737;52.586;13.284;2023-09-08T06:18:04;101754.72;;;18.42;100.00
31082;BME280;17737;52.586;13.284;2023-09-08T06:20:33;101757.47;;;18.42;100.00
31082;BME280;17737;52.586;13.284;2023-09-08T06:23:00;101754.44;;;18.58;100.00
31082;BME280;17737;52.586;13.284;2023-09-08T06:25:28;101755.00;;;18.47;100.00
31082;BME280;17737;52.586;13.284;2023-09-08T06:27:56;101743.63;;;18.92;100.00
31082;BME280;17737;52.586;13.284;2023-09-08T06:30:24;101748.94;;;18.72;100.00
31082;BME280;17737;52.586;13.284;2023-09-08T06:32:56;101751.31;;;18.82;100.00
31082;BME280;17737;52.586;13.284;2023-09-08T06:35:30;101748.81;;;18.87;100.00
31082;BME280;17737;52.586;13.284;2023-09-08T06:38:00;101746.38;;;18.98;100.00
31082;BME280;17737;52.586;13.284;2023-09-08T06:40:29;101748.47;;;19.24;100.00
31082;BME280;17737;52.586;13.284;2023-09-08T06:42:57;101739.13;;;19.12;100.00
31082;BME280;17737;52.586;13.284;2023-09-08T06:45:28;101736.09;;;19.28;100.00
31082;BME280;17737;52.586;13.284;2023-09-08T06:47:56;101736.38;;;19.33;100.00
31082;BME280;17737;52.586;13.284;2023-09-08T06:50:28;101738.25;;;19.73;100.00
31082;BME280;17737;52.586;13.284;2023-09-08T06:52:56;101738.38;;;20.12;100.00
31082;BME280;17737;52.586;13.284;2023-09-08T06:55:24;101736.91;;;20.10;100.00
31082;BME280;17737;52.586;13.284;2023-09-08T06:57:52;101730.78;;;20.08;100.00
31082;BME280;17737;52.586;13.284;2023-09-08T07:00:23;101730.47;;;20.31;100.00
31082;BME280;17737;52.586;13.284;2023-09-08T07:02:51;101726.25;;;20.35;100.00
31082;BME280;17737;52.586;13.284;2023-09-08T07:05:19;101740.78;;;20.29;100.00
31082;BME280;17737;52.586;13.284;2023-09-08T07:07:49;101734.91;;;20.45;100.00
31082;BME280;17737;52.586;13.284;2023-09-08T07:10:17;101733.84;;;20.59;100.00
31082;BME280;17737;52.586;13.284;2023-09-08T07:12:45;101736.38;;;20.41;100.00
31082;BME280;17737;52.586;13.284;2023-09-08T07:15:14;101732.81;;;20.53;100.00
31082;BME280;17737;52.586;13.284;2023-09-08T07:17:42;101740.19;;;20.40;100.00
31082;BME280;17737;52.586;13.284;2023-09-08T07:20:10;101731.97;;;20.46;100.00
31082;BME280;17737;52.586;13.284;2023-09-08T07:22:39;101740.19;;;20.46;100.00
31082;BME280;17737;52.586;13.284;2023-09-08T07:25:08;101739.53;;;20.64;100.00
31082;BME280;17737;52.586;13.284;2023-09-08T07:27:37;101742.28;;;20.64;100.00
31082;BME280;17737;52.586;13.284;2023-09-08T07:30:06;101737.88;;;20.89;100.00
31082;BME280;17737;52.586;13.284;2023-09-08T07:32:35;101741.47;;;21.02;100.00
31082;BME280;17737;52.586;13.284;2023-09-08T07:35:03;101744.44;;;21.07;100.00
31082;BME280;17737;52.586;13.284;2023-09-08T07:37:32;101748.16;;;21.32;100.00
31082;BME280;17737;52.586;13.284;2023-09-08T07:39:59;101751.56;;;21.28;100.00
31082;BME280;17737;52.586;13.284;2023-09-08T07:42:29;101747.38;;;21.06;100.00
31082;BME280;17737;52.586;13.284;2023-09-08T07:44:57;101751.16;;;21.11;100.00
31082;BME280;17737;52.586;13.284;2023-09-08T07:47:25;101754.31;;;21.28;100.00
31082;BME280;17737;52.586;13.284;2023-09-08T07:50:18;101742.22;;;21.49;100.00
31082;BME280;17737;52.586;13.284;2023-09-08T07:52:48;101759.47;;;21.56;100.00
31082;BME280;17737;52.586;13.284;2023-09-08T07:55:17;101745.56;;;21.64;100.00
31082;BME280;17737;52.586;13.284;2023-09-08T07:57:47;101750.38;;;21.68;100.00
31082;BME280;17737;52.586;13.284;2023-09-08T08:00:16;101758.56;;;21.75;100.00
31082;BME280;17737;52.586;13.284;2023-09-08T08:02:46;101758.16;;;21.78;100.00
31082;BME280;17737;52.586;13.284;2023-09-08T08:05:15;101756.03;;;21.86;100.00
31082;BME280;17737;52.586;13.284;2023-09-08T08:07:44;101753.47;;;21.91;100.00
31082;BME280;17737;52.586;13.284;2023-09-08T08:10:12;101756.66;;;21.88;100.00
31082;BME280;17737;52.586;13.284;2023-09-08T08:12:41;101760.22;;;21.95;100.00
31082;BME280;17737;52.586;13.284;2023-09-08T08:15:11;101748.34;;;22.08;100.00
31082;BME280;17737;52.586;13.284;2023-09-08T08:17:39;101745.72;;;22.19;100.00
31082;BME280;17737;52.586;13.284;2023-09-08T08:20:10;101749.72;;;22.23;100.00
31082;BME280;17737;52.586;13.284;2023-09-08T08:22:45;101742.63;;;22.09;100.00
31082;BME280;17737;52.586;13.284;2023-09-08T08:25:13;101746.59;;;22.13;100.00
31082;BME280;17737;52.586;13.284;2023-09-08T08:27:42;101741.69;;;22.28;100.00
31082;BME280;17737;52.586;13.284;2023-09-08T08:30:13;101737.16;;;22.40;100.00
31082;BME280;17737;52.586;13.284;2023-09-08T08:32:40;101744.28;;;22.48;100.00
31082;BME280;17737;52.586;13.284;2023-09-08T08:35:09;101736.25;;;22.46;100.00
31082;BME280;17737;52.586;13.284;2023-09-08T08:37:39;101733.69;;;22.83;100.00
31082;BME280;17737;52.586;13.284;2023-09-08T08:40:09;101744.31;;;22.97;100.00
31082;BME280;17737;52.586;13.284;2023-09-08T08:42:39;101735.69;;;22.94;100.00
31082;BME280;17737;52.586;13.284;2023-09-08T08:45:08;101734.16;;;22.73;100.00
31082;BME280;17737;52.586;13.284;2023-09-08T08:47:39;101728.63;;;23.04;100.00
31082;BME280;17737;52.586;13.284;2023-09-08T08:50:08;101737.25;;;23.26;100.00
31082;BME280;17737;52.586;13.284;2023-09-08T08:52:38;101733.00;;;23.12;100.00
31082;BME280;17737;52.586;13.284;2023-09-08T08:55:07;101735.63;;;23.43;100.00
31082;BME280;17737;52.586;13.284;2023-09-08T08:57:37;101720.81;;;23.44;100.00
31082;BME280;17737;52.586;13.284;2023-09-08T09:00:08;101729.97;;;23.74;100.00
31082;BME280;17737;52.586;13.284;2023-09-08T09:02:41;101721.97;;;23.36;100.00
31082;BME280;17737;52.586;13.284;2023-09-08T09:05:19;101726.16;;;23.75;100.00
31082;BME280;17737;52.586;13.284;2023-09-08T09:07:48;101721.44;;;23.64;100.00
31082;BME280;17737;52.586;13.284;2023-09-08T09:10:17;101725.56;;;23.37;100.00
31082;BME280;17737;52.586;13.284;2023-09-08T09:12:45;101730.53;;;23.64;100.00
31082;BME280;17737;52.586;13.284;2023-09-08T09:15:13;101729.38;;;23.72;100.00
31082;BME280;17737;52.586;13.284;2023-09-08T09:17:52;101720.91;;;23.55;100.00
31082;BME280;17737;52.586;13.284;2023-09-08T09:20:29;101723.25;;;23.88;100.00
31082;BME280;17737;52.586;13.284;2023-09-08T09:22:58;101720.97;;;23.85;100.00
31082;BME280;17737;52.586;13.284;2023-09-08T09:25:29;101726.13;;;24.11;100.00
31082;BME280;17737;52.586;13.284;2023-09-08T09:27:59;101719.28;;;24.02;100.00
31082;BME280;17737;52.586;13.284;2023-09-08T09:30:46;101724.31;;;24.05;100.00
31082;BME280;17737;52.586;13.284;2023-09-08T09:33:17;101712.56;;;24.92;100.00
31082;BME280;17737;52.586;13.284;2023-09-08T09:35:47;101713.97;;;24.30;100.00
31082;BME280;17737;52.586;13.284;2023-09-08T09:38:17;101720.34;;;24.31;100.00
31082;BME280;17737;52.586;13.284;2023-09-08T09:40:46;101711.38;;;25.11;100.00
31082;BME280;17737;52.586;13.284;2023-09-08T09:43:16;101712.06;;;24.95;100.00
31082;BME280;17737;52.586;13.284;2023-09-08T09:45:44;101710.00;;;25.25;100.00
31082;BME280;17737;52.586;13.284;2023-09-08T09:48:13;101704.09;;;24.52;100.00
31082;BME280;17737;52.586;13.284;2023-09-08T09:50:42;101703.31;;;24.34;100.00
31082;BME280;17737;52.586;13.284;2023-09-08T09:53:12;101706.31;;;24.32;100.00
31082;BME280;17737;52.586;13.284;2023-09-08T09:55:43;101702.03;;;24.89;100.00
31082;BME280;17737;52.586;13.284;2023-09-08T09:58:12;101708.31;;;24.66;100.00
31082;BME280;17737;52.586;13.284;2023-09-08T10:00:42;101701.75;;;24.79;100.00
31082;BME280;17737;52.586;13.284;2023-09-08T10:03:15;101706.91;;;24.99;100.00
31082;BME280;17737;52.586;13.284;2023-09-08T10:05:46;101693.34;;;24.74;100.00
31082;BME280;17737;52.586;13.284;2023-09-08T10:08:16;101697.81;;;24.75;100.00
31082;BME280;17737;52.586;13.284;2023-09-08T10:10:45;101693.72;;;25.24;100.00
31082;BME280;17737;52.586;13.284;2023-09-08T10:13:20;101697.69;;;25.16;100.00
31082;BME280;17737;52.586;13.284;2023-09-08T10:15:57;101693.84;;;25.17;100.00
31082;BME280;17737;52.586;13.284;2023-09-08T10:18:26;101690.25;;;25.28;100.00
31082;BME280;17737;52.586;13.284;2023-09-08T10:21:02;101689.53;;;24.87;100.00
31082;BME280;17737;52.586;13.284;2023-09-08T10:23:36;101689.91;;;25.02;100.00
31082;BME280;17737;52.586;13.284;2023-09-08T10:26:10;101681.19;;;25.56;100.00
31082;BME280;17737;52.586;13.284;2023-09-08T10:28:39;101683.66;;;25.80;100.00
31082;BME280;17737;52.586;13.284;2023-09-08T10:31:07;101686.16;;;25.54;100.00
31082;BME280;17737;52.586;13.284;2023-09-08T10:33:41;101674.41;;;25.75;100.00
31082;BME280;17737;52.586;13.284;2023-09-08T10:36:12;101673.56;;;25.86;100.00
31082;BME280;17737;52.586;13.284;2023-09-08T10:38:41;101669.59;;;25.82;100.00
31082;BME280;17737;52.586;13.284;2023-09-08T10:41:27;101675.44;;;26.25;100.00
31082;BME280;17737;52.586;13.284;2023-09-08T10:44:02;101680.53;;;25.77;100.00
31082;BME280;17737;52.586;13.284;2023-09-08T10:46:33;101670.88;;;25.63;100.00
31082;BME280;17737;52.586;13.284;2023-09-08T10:49:03;101663.28;;;25.70;100.00
31082;BME280;17737;52.586;13.284;2023-09-08T10:51:35;101661.97;;;26.29;100.00
31082;BME280;17737;52.586;13.284;2023-09-08T10:54:04;101663.13;;;26.49;100.00
31082;BME280;17737;52.586;13.284;2023-09-08T10:56:54;101661.81;;;25.79;100.00
31082;BME280;17737;52.586;13.284;2023-09-08T10:59:28;101665.38;;;25.91;100.00
31082;BME280;17737;52.586;13.284;2023-09-08T11:01:56;101667.09;;;26.09;100.00
31082;BME280;17737;52.586;13.284;2023-09-08T11:04:25;101665.38;;;25.79;100.00
31082;BME280;17737;52.586;13.284;2023-09-08T11:06:57;101662.69;;;25.96;100.00
31082;BME280;17737;52.586;13.284;2023-09-08T11:09:25;101660.66;;;26.03;100.00
31082;BME280;17737;52.586;13.284;2023-09-08T11:11:53;101663.88;;;26.61;100.00
31082;BME280;17737;52.586;13.284;2023-09-08T11:14:21;101661.63;;;26.91;100.00
31082;BME280;17737;52.586;13.284;2023-09-08T11:16:49;101654.56;;;27.00;100.00
31082;BME280;17737;52.586;13.284;2023-09-08T11:19:18;101656.84;;;26.87;100.00
31082;BME280;17737;52.586;13.284;2023-09-08T11:21:47;101655.53;;;26.89;99.67
31082;BME280;17737;52.586;13.284;2023-09-08T11:24:18;101652.84;;;26.78;100.00
31082;BME280;17737;52.586;13.284;2023-09-08T11:26:46;101660.59;;;26.48;100.00
31082;BME280;17737;52.586;13.284;2023-09-08T11:29:18;101652.19;;;26.71;100.00
31082;BME280;17737;52.586;13.284;2023-09-08T11:31:51;101655.41;;;26.51;100.00
31082;BME280;17737;52.586;13.284;2023-09-08T11:34:22;101649.97;;;26.56;100.00
31082;BME280;17737;52.586;13.284;2023-09-08T11:36:50;101645.81;;;26.37;100.00
31082;BME280;17737;52.586;13.284;2023-09-08T11:39:23;101643.69;;;26.44;100.00
31082;BME280;17737;52.586;13.284;2023-09-08T11:41:52;101645.22;;;26.35;100.00
31082;BME280;17737;52.586;13.284;2023-09-08T11:44:20;101649.00;;;26.79;100.00
31082;BME280;17737;52.586;13.284;2023-09-08T11:46:49;101637.41;;;26.65;100.00
31082;BME280;17737;52.586;13.284;2023-09-08T11:49:19;101639.00;;;26.94;100.00
31082;BME280;17737;52.586;13.284;2023-09-08T11:51:49;101638.19;;;26.77;100.00
31082;BME280;17737;52.586;13.284;2023-09-08T11:54:17;101633.47;;;26.94;100.00
31082;BME280;17737;52.586;13.284;2023-09-08T11:56:47;101635.81;;;26.86;100.00
31082;BME280;17737;52.586;13.284;2023-09-08T11:59:16;101628.03;;;26.50;100.00
31082;BME280;17737;52.586;13.284;2023-09-08T12:01:44;101628.16;;;26.71;100.00
31082;BME280;17737;52.586;13.284;2023-09-08T12:04:17;101623.09;;;26.68;100.00
31082;BME280;17737;52.586;13.284;2023-09-08T12:06:47;101618.31;;;26.80;100.00
31082;BME280;17737;52.586;13.284;2023-09-08T12:09:16;101617.16;;;26.43;100.00
31082;BME280;17737;52.586;13.284;2023-09-08T12:11:46;101617.66;;;26.57;100.00
31082;BME280;17737;52.586;13.284;2023-09-08T12:14:14;101614.31;;;26.71;100.00
31082;BME280;17737;52.586;13.284;2023-09-08T12:16:43;101601.38;;;26.93;100.00
31082;BME280;17737;52.586;13.284;2023-09-08T12:19:31;101613.84;;;26.96;100.00
31082;BME280;17737;52.586;13.284;2023-09-08T12:22:01;101606.94;;;26.44;100.00
31082;BME280;17737;52.586;13.284;2023-09-08T12:24:46;101599.06;;;26.36;100.00
31082;BME280;17737;52.586;13.284;2023-09-08T12:27:16;101597.69;;;26.88;100.00
31082;BME280;17737;52.586;13.284;2023-09-08T12:29:52;101598.03;;;26.91;100.00
31082;BME280;17737;52.586;13.284;2023-09-08T12:32:21;101588.38;;;26.94;100.00
31082;BME280;17737;52.586;13.284;2023-09-08T12:34:50;101596.06;;;27.08;100.00
31082;BME280;17737;52.586;13.284;2023-09-08T12:37:20;101587.88;;;27.19;100.00
31082;BME280;17737;52.586;13.284;2023-09-08T12:39:49;101589.88;;;27.01;100.00
31082;BME280;17737;52.586;13.284;2023-09-08T12:42:18;101591.19;;;27.37;88.33